Time;durP1;ratioP1;P1;durP2;ratioP2;P2;SDS_P1;SDS_P2;PMS_P1;PMS_P2;Temp;Humidity;BMP_temperature;BMP_pressure;BME280_temperature;BME280_humidity;BME280_pressure;Samples;Min_cycle;Max_cycle;Signal;HPM_P1;HPM_P2
2023/03/28 00:01:36;;;;;;;6.57;2.85;;;;;;;2.06;100.00;102507.09;4936170;29;20019;-71
2023/03/28 00:04:02;;;;;;;7.32;2.83;;;;;;;2.06;100.00;102508.94;4959197;28;20348;-72
2023/03/28 00:06:27;;;;;;;8.35;2.53;;;;;;;2.01;100.00;102512.00;4957753;28;20050;-72
2023/03/28 00:08:54;;;;;;;11.48;3.15;;;;;;;2.05;100.00;102509.91;4958381;28;20045;-68
2023/03/28 00:11:21;;;;;;;12.35;3.13;;;;;;;2.04;100.00;102510.88;4975969;28;20019;-70
2023/03/28 00:13:48;;;;;;;7.63;2.53;;;;;;;2.03;100.00;102509.19;4971604;28;20039;-68
2023/03/28 00:16:13;;;;;;;9.60;3.28;;;;;;;2.01;100.00;102508.44;4939246;29;20082;-71
2023/03/28 00:18:41;;;;;;;7.95;2.60;;;;;;;2.01;100.00;102508.44;4939116;29;20403;-71
2023/03/28 00:21:18;;;;;;;6.85;2.72;;;;;;;2.03;100.00;102509.19;4956314;29;20114;-70
2023/03/28 00:23:44;;;;;;;9.35;2.67;;;;;;;1.97;100.00;102502.53;4956063;28;20113;-70
2023/03/28 00:26:12;;;;;;;10.15;2.60;;;;;;;1.97;100.00;102496.34;4956165;29;20066;-70
2023/03/28 00:28:37;;;;;;;13.10;3.15;;;;;;;1.95;100.00;102496.47;4955618;28;20039;-71
2023/03/28 00:31:05;;;;;;;11.15;2.80;;;;;;;1.93;100.00;102509.09;4955827;29;20459;-73
2023/03/28 00:33:30;;;;;;;10.48;3.10;;;;;;;1.91;100.00;102495.03;4965216;28;20467;-68
2023/03/28 00:35:55;;;;;;;9.52;3.25;;;;;;;1.90;100.00;102499.53;4957623;28;20033;-70
2023/03/28 00:38:21;;;;;;;11.35;3.00;;;;;;;1.87;100.00;102499.78;4975645;28;20027;-71
2023/03/28 00:40:47;;;;;;;5.05;2.33;;;;;;;1.87;100.00;102496.25;4974152;28;20030;-70
2023/03/28 00:43:13;;;;;;;10.88;2.88;;;;;;;1.86;100.00;102502.59;4966566;28;20073;-70
2023/03/28 00:45:40;;;;;;;13.18;3.17;;;;;;;1.85;100.00;102501.72;4956035;29;20054;-69
2023/03/28 00:48:12;;;;;;;10.55;2.95;;;;;;;1.83;100.00;102502.81;4955489;29;20035;-71
2023/03/28 00:50:45;;;;;;;8.05;2.85;;;;;;;1.79;100.00;102506.72;4955907;29;20027;-68
2023/03/28 00:53:18;;;;;;;6.22;3.08;;;;;;;1.79;100.00;102504.91;4955278;28;20030;-69
2023/03/28 00:55:51;;;;;;;9.38;2.65;;;;;;;1.75;100.00;102511.44;4955744;29;20466;-69
2023/03/28 00:58:23;;;;;;;7.03;2.80;;;;;;;1.78;100.00;102508.53;4955422;28;20037;-71
2023/03/28 01:00:53;;;;;;;6.32;2.92;;;;;;;1.74;100.00;102509.78;4952121;29;20015;-71
2023/03/28 01:03:21;;;;;;;8.95;2.83;;;;;;;1.69;100.00;102507.50;4958613;28;20054;-70
2023/03/28 01:05:46;;;;;;;5.90;2.50;;;;;;;1.65;100.00;102502.53;4974964;28;20061;-70
2023/03/28 01:08:40;;;;;;;10.13;2.85;;;;;;;1.71;100.00;102504.69;4974759;28;20037;-68
2023/03/28 01:11:06;;;;;;;8.13;2.97;;;;;;;1.66;100.00;102509.53;4955552;28;20061;-72
2023/03/28 01:13:35;;;;;;;7.03;2.67;;;;;;;1.64;100.00;102498.16;4971000;28;20526;-69
2023/03/28 01:16:06;;;;;;;8.07;2.83;;;;;;;1.66;100.00;102506.88;4974582;28;20081;-70
2023/03/28 01:18:33;;;;;;;9.75;3.17;;;;;;;1.64;100.00;102508.81;4974862;28;20054;-68
2023/03/28 01:21:04;;;;;;;6.07;2.65;;;;;;;1.64;100.00;102498.16;4974469;28;20035;-69
2023/03/28 01:24:09;;;;;;;9.10;2.88;;;;;;;1.65;100.00;102497.19;4962231;28;20035;-70
2023/03/28 01:26:55;;;;;;;7.00;2.83;;;;;;;1.67;100.00;102498.75;4954292;28;20046;-72
2023/03/28 01:29:38;;;;;;;7.57;2.72;;;;;;;1.61;100.00;102493.06;4974562;28;20026;-71
2023/03/28 01:32:45;;;;;;;6.53;2.55;;;;;;;1.60;100.00;102492.19;4974096;28;20030;-71
2023/03/28 01:35:41;;;;;;;5.90;2.67;;;;;;;1.61;100.00;102493.06;4958943;28;20043;-69
2023/03/28 01:38:19;;;;;;;9.82;2.65;;;;;;;1.57;100.00;102492.44;4973823;28;20062;-69
2023/03/28 01:41:08;;;;;;;9.30;3.05;;;;;;;1.50;100.00;102486.78;4974185;28;20049;-70
2023/03/28 01:43:58;;;;;;;8.20;2.75;;;;;;;1.48;100.00;102488.75;4964471;28;20102;-69
2023/03/28 01:46:31;;;;;;;6.40;2.90;;;;;;;1.47;100.00;102484.38;4955011;29;20019;-69
2023/03/28 01:49:25;;;;;;;10.60;3.50;;;;;;;1.47;100.00;102473.69;4937411;29;20027;-69
2023/03/28 01:52:01;;;;;;;7.35;2.67;;;;;;;1.45;100.00;102482.78;4949013;29;20641;-70
2023/03/28 01:54:43;;;;;;;4.80;2.70;;;;;;;1.38;100.00;102474.44;4969998;28;20034;-71
2023/03/28 01:57:34;;;;;;;7.03;2.78;;;;;;;1.37;100.00;102476.25;4973767;28;20033;-70
2023/03/28 02:00:14;;;;;;;6.40;3.00;;;;;;;1.36;100.00;102479.03;4956490;28;20027;-70
2023/03/28 02:02:48;;;;;;;9.93;3.15;;;;;;;1.34;100.00;102475.66;4970965;28;20114;-69
2023/03/28 02:05:14;;;;;;;7.40;2.92;;;;;;;1.32;100.00;102475.78;4962651;28;20035;-71
2023/03/28 02:07:42;;;;;;;11.32;3.28;;;;;;;1.32;100.00;102482.94;4954710;29;20058;-70
2023/03/28 02:10:10;;;;;;;6.47;2.70;;;;;;;1.31;100.00;102482.06;4954455;29;20110;-69
2023/03/28 02:12:44;;;;;;;9.98;3.20;;;;;;;1.29;100.00;102477.84;4954837;28;20074;-69
2023/03/28 02:15:14;;;;;;;8.15;2.90;;;;;;;1.28;100.00;102470.81;4973599;28;20030;-72
2023/03/28 02:17:44;;;;;;;10.23;3.40;;;;;;;1.24;100.00;102473.72;4973843;28;20035;-72
2023/03/28 02:20:15;;;;;;;8.77;3.00;;;;;;;1.29;100.00;102475.19;4971508;28;20037;-68
2023/03/28 02:22:49;;;;;;;12.75;3.35;;;;;;;1.31;100.00;102476.75;4961289;28;20031;-69
2023/03/28 02:25:15;;;;;;;9.85;3.17;;;;;;;1.28;100.00;102479.66;4973152;28;20038;-69
2023/03/28 02:27:44;;;;;;;12.23;3.10;;;;;;;1.24;100.00;102476.41;4973531;28;20115;-69
2023/03/28 02:30:10;;;;;;;11.18;3.55;;;;;;;1.24;100.00;102468.41;4973470;28;20034;-70
2023/03/28 02:32:36;;;;;;;11.30;3.40;;;;;;;1.28;100.00;102470.81;4972571;28;20481;-72
2023/03/28 02:35:05;;;;;;;10.45;3.28;;;;;;;1.29;100.00;102467.19;4954191;29;20078;-73
2023/03/28 02:37:42;;;;;;;12.10;3.78;;;;;;;1.26;100.00;102467.44;4953599;28;20034;-73
2023/03/28 02:40:16;;;;;;;9.30;3.53;;;;;;;1.26;100.00;102464.78;4954127;29;20038;-71
2023/03/28 02:42:52;;;;;;;10.05;3.25;;;;;;;1.25;100.00;102471.91;4954699;28;20037;-72
2023/03/28 02:45:32;;;;;;;8.65;3.65;;;;;;;1.22;100.00;102466.81;4973344;28;20287;-72
2023/03/28 02:48:02;;;;;;;11.88;4.25;;;;;;;1.20;100.00;102468.78;4973526;28;20026;-71
2023/03/28 02:50:43;;;;;;;9.53;3.33;;;;;;;1.17;100.00;102464.53;4973281;28;20060;-71
2023/03/28 02:53:25;;;;;;;16.05;3.67;;;;;;;1.18;100.00;102471.56;4940369;28;20609;-69
2023/03/28 02:55:58;;;;;;;7.35;3.55;;;;;;;1.20;100.00;102466.94;4947154;28;20034;-69
2023/03/28 02:58:50;;;;;;;8.02;3.90;;;;;;;1.19;100.00;102464.41;4973178;28;20447;-69
2023/03/28 03:01:16;;;;;;;8.15;3.45;;;;;;;1.16;100.00;102467.31;4970672;28;20038;-73
2023/03/28 03:03:42;;;;;;;8.00;3.45;;;;;;;1.15;100.00;102462.97;4952252;29;20027;-73
2023/03/28 03:06:44;;;;;;;14.63;3.80;;;;;;;1.13;100.00;102463.06;4953734;29;20031;-71
2023/03/28 03:09:10;;;;;;;8.73;3.65;;;;;;;1.11;100.00;102462.34;4953575;29;20031;-71
2023/03/28 03:11:35;;;;;;;10.68;3.88;;;;;;;1.08;100.00;102469.75;4954072;29;20047;-70
2023/03/28 03:14:01;;;;;;;6.35;3.47;;;;;;;1.08;100.00;102470.59;4947034;28;20463;-69
2023/03/28 03:16:27;;;;;;;12.18;4.30;;;;;;;1.05;100.00;102465.50;4972983;28;20109;-72
2023/03/28 03:18:53;;;;;;;13.20;4.05;;;;;;;1.04;100.00;102471.81;4973202;28;20045;-72
2023/03/28 03:21:18;;;;;;;9.48;3.90;;;;;;;1.01;100.00;102464.06;4951468;28;20031;-72
2023/03/28 03:23:46;;;;;;;11.77;3.85;;;;;;;0.99;100.00;102464.19;4970147;28;20027;-72
2023/03/28 03:26:11;;;;;;;16.35;4.78;;;;;;;0.98;100.00;102466.97;4955615;28;20362;-69
2023/03/28 03:28:38;;;;;;;9.57;4.32;;;;;;;0.97;100.00;102468.78;4973199;28;20447;-70
2023/03/28 03:31:03;;;;;;;8.40;4.40;;;;;;;1.02;100.00;102469.25;4955604;28;20086;-71
2023/03/28 03:33:29;;;;;;;13.25;4.75;;;;;;;1.03;100.00;102468.31;4971993;28;20070;-70
2023/03/28 03:35:54;;;;;;;11.77;5.00;;;;;;;1.03;100.00;102465.63;4975396;28;20019;-71
2023/03/28 03:38:19;;;;;;;12.90;4.65;;;;;;;0.98;100.00;102466.97;4954591;29;20047;-70
2023/03/28 03:40:45;;;;;;;12.75;4.40;;;;;;;1.01;100.00;102472.06;4957506;29;20042;-69
2023/03/28 03:43:10;;;;;;;17.65;5.38;;;;;;;1.02;100.00;102473.75;4959841;28;20093;-70
2023/03/28 03:45:36;;;;;;;10.82;4.20;;;;;;;1.00;100.00;102468.56;4959014;28;20082;-72
2023/03/28 03:48:02;;;;;;;9.77;4.05;;;;;;;0.97;100.00;102467.97;4976397;28;20022;-69
2023/03/28 03:50:28;;;;;;;10.77;4.55;;;;;;;0.95;100.00;102473.41;4959007;28;20168;-69
2023/03/28 03:52:53;;;;;;;12.80;4.80;;;;;;;0.97;100.00;102467.97;4943214;28;20038;-72
2023/03/28 03:55:19;;;;;;;14.32;4.97;;;;;;;0.96;100.00;102474.25;4963393;28;20082;-71
2023/03/28 03:57:45;;;;;;;14.90;4.88;;;;;;;0.93;100.00;102469.16;4940006;29;20372;-71
2023/03/28 04:00:13;;;;;;;10.80;4.80;;;;;;;0.94;100.00;102463.72;4939378;29;20031;-71
2023/03/28 04:02:39;;;;;;;13.65;4.60;;;;;;;0.93;100.00;102462.00;4954847;29;20031;-71
2023/03/28 04:05:07;;;;;;;12.18;5.00;;;;;;;0.91;100.00;102468.41;4956288;28;20082;-69
2023/03/28 04:07:33;;;;;;;9.52;4.65;;;;;;;0.87;100.00;102463.31;4956270;28;20110;-71
2023/03/28 04:09:58;;;;;;;12.35;4.70;;;;;;;0.88;100.00;102459.69;4939545;29;20130;-72
2023/03/28 04:12:23;;;;;;;13.20;5.03;;;;;;;0.87;100.00;102466.00;4939187;29;20031;-71
2023/03/28 04:14:49;;;;;;;10.80;4.97;;;;;;;0.84;100.00;102471.56;4972043;28;20109;-71
2023/03/28 04:17:16;;;;;;;11.38;5.05;;;;;;;0.80;100.00;102462.13;4975631;28;20026;-69
2023/03/28 04:19:42;;;;;;;13.02;4.82;;;;;;;0.78;100.00;102469.38;4975784;28;20026;-73
2023/03/28 04:22:11;;;;;;;10.00;4.78;;;;;;;0.80;100.00;102464.81;4971428;28;20027;-71
2023/03/28 04:24:40;;;;;;;14.65;4.97;;;;;;;0.78;100.00;102466.72;4949106;29;20055;-71
2023/03/28 04:27:08;;;;;;;14.15;5.28;;;;;;;0.79;100.00;102464.94;4972814;28;20042;-72
2023/03/28 04:29:33;;;;;;;14.73;5.03;;;;;;;0.77;100.00;102457.06;4975671;28;20034;-70
2023/03/28 04:31:59;;;;;;;9.88;4.47;;;;;;;0.75;100.00;102458.97;4958298;28;20023;-71
2023/03/28 04:34:29;;;;;;;8.73;4.78;;;;;;;0.76;100.00;102459.84;4974392;28;20074;-70
2023/03/28 04:37:01;;;;;;;10.00;5.25;;;;;;;0.73;100.00;102457.41;4975602;28;20035;-72
2023/03/28 04:39:31;;;;;;;12.48;5.30;;;;;;;0.65;100.00;102453.53;4973807;28;20109;-71
2023/03/28 04:42:00;;;;;;;10.23;4.72;;;;;;;0.65;100.00;102455.31;4975454;28;20027;-72
2023/03/28 04:44:27;;;;;;;12.02;5.88;;;;;;;0.64;100.00;102457.16;4945007;29;20035;-70
2023/03/28 04:46:53;;;;;;;10.38;5.65;;;;;;;0.63;100.00;102452.78;4937950;29;20030;-73
2023/03/28 04:49:20;;;;;;;11.80;5.55;;;;;;;0.65;100.00;102452.66;4956036;29;20038;-71
2023/03/28 04:51:45;;;;;;;17.98;6.50;;;;;;;0.62;100.00;102452.91;4938132;28;20042;-71
2023/03/28 04:54:10;;;;;;;17.88;6.45;;;;;;;0.63;100.00;102458.13;4946442;29;20228;-72
2023/03/28 04:56:36;;;;;;;12.55;5.95;;;;;;;0.64;100.00;102459.81;4955770;29;20062;-71
2023/03/28 04:59:02;;;;;;;11.73;6.25;;;;;;;0.60;100.00;102455.69;4955713;29;20102;-72
2023/03/28 05:01:28;;;;;;;16.00;6.63;;;;;;;0.61;100.00;102459.22;4953190;29;20074;-73
2023/03/28 05:03:54;;;;;;;14.45;6.88;;;;;;;0.65;100.00;102463.31;4962509;28;20462;-70
2023/03/28 05:06:20;;;;;;;12.88;6.70;;;;;;;0.64;100.00;102462.47;4974476;28;20030;-72
2023/03/28 05:08:45;;;;;;;13.30;7.07;;;;;;;0.64;100.00;102462.47;4956249;28;20043;-71
2023/03/28 05:11:11;;;;;;;17.23;7.63;;;;;;;0.64;100.00;102472.31;4955394;29;20420;-71
2023/03/28 05:13:36;;;;;;;17.23;8.65;;;;;;;0.63;100.00;102467.94;4960025;28;20081;-69
2023/03/28 05:16:01;;;;;;;14.00;8.25;;;;;;;0.62;100.00;102474.22;4974765;28;20484;-71
2023/03/28 05:18:27;;;;;;;17.75;10.38;;;;;;;0.62;100.00;102471.56;4957005;28;20023;-71
2023/03/28 05:20:52;;;;;;;20.20;10.13;;;;;;;0.63;100.00;102466.09;4974791;28;20030;-71
2023/03/28 05:23:18;;;;;;;20.60;10.88;;;;;;;0.66;100.00;102473.03;4956996;28;20031;-69
2023/03/28 05:25:49;;;;;;;16.45;9.07;;;;;;;0.63;100.00;102475.94;4954896;28;20038;-70
2023/03/28 05:28:14;;;;;;;20.00;10.05;;;;;;;0.66;100.00;102478.34;4937872;29;20027;-71
2023/03/28 05:30:40;;;;;;;21.15;12.50;;;;;;;0.67;100.00;102483.56;4937983;29;20035;-71
2023/03/28 05:33:05;;;;;;;24.77;11.30;;;;;;;0.65;100.00;102487.28;4955178;28;20035;-70
2023/03/28 05:35:31;;;;;;;16.33;9.20;;;;;;;0.65;100.00;102484.63;4974394;28;20053;-72
2023/03/28 05:37:56;;;;;;;20.58;8.32;;;;;;;0.62;100.00;102477.75;4958289;28;20037;-72
2023/03/28 05:40:22;;;;;;;14.45;7.72;;;;;;;0.62;100.00;102485.75;4954993;29;20041;-72
2023/03/28 05:42:47;;;;;;;15.70;8.10;;;;;;;0.65;100.00;102487.28;4954924;29;20047;-73
2023/03/28 05:45:13;;;;;;;16.10;7.93;;;;;;;0.67;100.00;102491.56;4954745;28;20481;-71
2023/03/28 05:47:39;;;;;;;20.95;7.72;;;;;;;0.68;100.00;102495.06;4955065;29;20035;-71
2023/03/28 05:50:06;;;;;;;15.10;8.05;;;;;;;0.71;100.00;102489.50;4954997;29;20033;-71
2023/03/28 05:52:31;;;;;;;14.45;7.70;;;;;;;0.73;100.00;102498.22;4954172;28;20156;-73
2023/03/28 05:54:56;;;;;;;18.75;7.82;;;;;;;0.74;100.00;102488.41;4952082;28;20129;-72
2023/03/28 05:57:22;;;;;;;19.10;8.13;;;;;;;0.74;100.00;102486.59;4956315;28;20019;-72
2023/03/28 05:59:48;;;;;;;17.88;8.50;;;;;;;0.78;100.00;102485.38;4973045;28;20106;-69
2023/03/28 06:02:15;;;;;;;13.57;7.78;;;;;;;0.79;100.00;102475.59;4971643;28;20115;-73
2023/03/28 06:04:41;;;;;;;20.30;8.30;;;;;;;0.84;100.00;102479.56;4955946;28;20053;-69
2023/03/28 06:07:07;;;;;;;15.77;8.10;;;;;;;0.87;100.00;102475.81;4943050;29;20121;-72
2023/03/28 06:09:34;;;;;;;22.77;9.65;;;;;;;0.87;100.00;102468.66;4954454;29;20027;-72
2023/03/28 06:12:00;;;;;;;16.63;7.80;;;;;;;0.89;100.00;102468.53;4954310;29;20031;-72
2023/03/28 06:14:26;;;;;;;16.95;8.35;;;;;;;0.96;100.00;102475.09;4964000;28;20246;-72
2023/03/28 06:16:51;;;;;;;17.75;8.23;;;;;;;1.00;100.00;102470.38;4956463;28;20113;-69
2023/03/28 06:19:17;;;;;;;13.35;7.28;;;;;;;1.05;100.00;102468.19;4973266;28;20109;-71
2023/03/28 06:21:42;;;;;;;16.40;8.20;;;;;;;1.12;100.00;102472.06;4961337;28;20027;-73
2023/03/28 06:24:09;;;;;;;15.77;8.07;;;;;;;1.19;100.00;102475.06;4945312;28;20023;-72
2023/03/28 06:26:34;;;;;;;18.92;7.38;;;;;;;1.23;100.00;102474.69;4952603;29;20465;-73
2023/03/28 06:29:00;;;;;;;18.52;8.65;;;;;;;1.30;100.00;102474.19;4937540;29;20118;-73
2023/03/28 06:31:25;;;;;;;17.70;8.18;;;;;;;1.32;100.00;102482.94;4954060;29;20471;-72
2023/03/28 06:33:50;;;;;;;17.52;7.85;;;;;;;1.37;100.00;102486.91;4953580;28;20019;-71
2023/03/28 06:36:16;;;;;;;14.70;7.85;;;;;;;1.40;100.00;102483.16;4936695;29;20035;-71
2023/03/28 06:38:41;;;;;;;18.15;8.13;;;;;;;1.42;100.00;102489.25;4953080;29;20118;-73
2023/03/28 06:41:07;;;;;;;16.95;7.80;;;;;;;1.45;100.00;102493.44;4954360;29;20510;-75
2023/03/28 06:43:32;;;;;;;16.05;7.70;;;;;;;1.48;100.00;102483.41;4955990;28;20039;-73
2023/03/28 06:45:57;;;;;;;18.08;7.43;;;;;;;1.54;100.00;102492.69;4956272;28;20031;-75
2023/03/28 06:48:29;;;;;;;18.75;8.48;;;;;;;1.55;100.00;102481.91;4973026;28;20451;-73
2023/03/28 06:50:57;;;;;;;;;;;;;;;1.67;100.00;102485.41;4963864;28;20034;-71
2023/03/28 06:53:23;;;;;;;16.02;6.85;;;;;;;1.69;100.00;102487.94;4956782;28;19952;-73
2023/03/28 06:55:50;;;;;;;13.05;6.53;;;;;;;1.74;100.00;102494.59;4952457;28;20027;-71
2023/03/28 06:58:16;;;;;;;14.07;7.75;;;;;;;1.73;100.00;102494.72;4970341;28;20045;-71
2023/03/28 07:00:42;;;;;;;18.02;7.35;;;;;;;1.75;100.00;102485.63;4953245;28;20022;-70
2023/03/28 07:03:08;;;;;;;16.13;8.02;;;;;;;1.80;100.00;102492.38;4972467;28;20382;-71
2023/03/28 07:05:42;;;;;;;18.58;7.78;;;;;;;1.85;100.00;102491.03;4953439;28;20035;-71
2023/03/28 07:08:09;;;;;;;15.93;8.07;;;;;;;1.86;100.00;102492.75;4945450;28;20467;-72
2023/03/28 07:10:38;;;;;;;19.13;8.25;;;;;;;1.91;100.00;102503.03;4955790;28;20023;-74
2023/03/28 07:13:04;;;;;;;22.83;8.25;;;;;;;1.94;100.00;102490.28;4940557;29;20027;-73
2023/03/28 07:15:35;;;;;;;18.52;8.68;;;;;;;1.99;100.00;102499.72;4956863;28;20034;-77
2023/03/28 07:18:00;;;;;;;21.90;7.47;;;;;;;2.03;100.00;102498.50;4940347;29;20402;-76
2023/03/28 07:20:29;;;;;;;15.90;8.32;;;;;;;2.09;100.00;102496.16;4956809;28;20098;-76
2023/03/28 07:22:54;;;;;;;17.67;8.02;;;;;;;2.11;100.00;102506.72;4957029;28;20082;-72
2023/03/28 07:25:20;;;;;;;13.70;7.60;;;;;;;2.19;100.00;102504.25;4955981;28;20034;-73
2023/03/28 07:27:45;;;;;;;24.05;9.32;;;;;;;2.25;100.00;102509.09;4976542;28;20038;-74
2023/03/28 07:30:11;;;;;;;21.00;8.43;;;;;;;2.33;100.00;102507.59;4959394;28;20058;-71
2023/03/28 07:32:37;;;;;;;22.13;7.25;;;;;;;2.38;100.00;102508.03;4959123;28;20033;-76
2023/03/28 07:35:03;;;;;;;17.52;7.90;;;;;;;2.45;100.00;102503.88;4975523;28;20093;-71
2023/03/28 07:37:29;;;;;;;15.30;7.88;;;;;;;2.53;100.00;102506.72;4963597;28;20041;-71
2023/03/28 07:39:55;;;;;;;15.15;7.47;;;;;;;2.62;100.00;102505.94;4972168;28;20038;-71
2023/03/28 07:42:22;;;;;;;16.65;7.15;;;;;;;2.71;100.00;102506.97;4972359;28;20510;-73
2023/03/28 07:44:47;;;;;;;16.25;6.88;;;;;;;2.77;100.00;102509.13;4965229;28;20097;-75
2023/03/28 07:47:12;;;;;;;17.25;6.93;;;;;;;2.84;100.00;102512.13;4958379;28;20023;-70
2023/03/28 07:49:38;;;;;;;12.32;6.10;;;;;;;2.92;100.00;102511.47;4973868;28;20031;-75
2023/03/28 07:52:04;;;;;;;15.13;6.60;;;;;;;3.00;100.00;102499.13;4957807;28;20038;-73
2023/03/28 07:54:32;;;;;;;16.38;6.63;;;;;;;3.07;100.00;102506.59;4956662;29;20038;-73
2023/03/28 07:56:58;;;;;;;11.68;6.22;;;;;;;3.15;100.00;102512.09;4956635;29;20035;-72
2023/03/28 07:59:24;;;;;;;14.35;6.00;;;;;;;3.20;100.00;102509.88;4966813;28;20414;-73
2023/03/28 08:01:50;;;;;;;22.40;7.05;;;;;;;3.29;100.00;102511.75;4966430;28;20391;-74
2023/03/28 08:04:15;;;;;;;10.90;6.18;;;;;;;3.39;100.00;102510.94;4939661;29;20035;-76
2023/03/28 08:06:40;;;;;;;15.13;6.13;;;;;;;3.48;100.00;102518.97;4957044;29;20146;-73
2023/03/28 08:09:12;;;;;;;11.43;6.22;;;;;;;3.57;100.00;102516.47;4948367;28;20491;-72
2023/03/28 08:11:39;;;;;;;12.30;5.18;;;;;;;3.70;100.00;102522.41;4974610;28;20110;-73
2023/03/28 08:14:09;;;;;;;9.05;4.82;;;;;;;3.76;100.00;102504.94;4958618;28;20049;-73
2023/03/28 08:16:35;;;;;;;13.52;5.55;;;;;;;3.82;100.00;102515.94;4970226;28;20078;-73
2023/03/28 08:19:01;;;;;;;10.43;5.00;;;;;;;3.87;100.00;102512.84;4941911;29;20103;-73
2023/03/28 08:21:29;;;;;;;15.77;5.05;;;;;;;3.93;100.00;102519.47;4955629;28;20031;-74
2023/03/28 08:23:56;;;;;;;11.82;4.75;;;;;;;3.98;100.00;102518.06;4939166;29;20478;-76
2023/03/28 08:26:22;;;;;;;11.90;4.50;;;;;;;4.05;100.00;102511.16;4938656;28;20057;-73
2023/03/28 08:28:47;;;;;;;12.55;4.80;;;;;;;4.14;100.00;102508.63;4956245;28;20117;-72
2023/03/28 08:31:15;;;;;;;9.30;4.53;;;;;;;4.20;100.00;102514.25;4938769;29;20459;-72
2023/03/28 08:33:47;;;;;;;18.75;6.00;;;;;;;4.34;100.00;102504.09;4958934;28;20035;-72
2023/03/28 08:36:16;;;;;;;12.93;4.53;;;;;;;4.40;99.65;102514.25;4974388;28;20030;-73
2023/03/28 08:38:42;;;;;;;11.63;3.90;;;;;;;4.42;95.37;102505.06;4972613;28;20053;-70
2023/03/28 08:41:27;;;;;;;15.25;4.47;;;;;;;4.51;97.01;102513.22;4975570;28;20026;-72
2023/03/28 08:43:58;;;;;;;11.93;3.97;;;;;;;4.56;98.11;102495.72;4975485;28;20035;-73
2023/03/28 08:46:26;;;;;;;12.60;4.20;;;;;;;4.63;97.49;102498.66;4957223;28;20023;-75
2023/03/28 08:48:53;;;;;;;8.70;3.97;;;;;;;4.70;94.50;102498.94;4956608;28;20023;-73
2023/03/28 08:51:21;;;;;;;10.32;3.90;;;;;;;4.72;91.61;102503.16;4956272;29;20035;-74
2023/03/28 08:54:04;;;;;;;10.63;3.50;;;;;;;4.73;90.68;102496.81;4955725;29;20038;-71
2023/03/28 08:56:41;;;;;;;14.27;3.78;;;;;;;4.79;93.73;102503.44;4955268;28;20122;-71
2023/03/28 08:59:11;;;;;;;12.27;3.67;;;;;;;4.85;89.88;102502.00;4955559;29;20031;-70
2023/03/28 09:01:38;;;;;;;14.57;4.15;;;;;;;4.87;84.65;102497.34;4953496;29;20031;-74
2023/03/28 09:04:04;;;;;;;10.68;3.40;;;;;;;4.88;85.08;102501.72;4938077;29;20486;-74
2023/03/28 09:06:39;;;;;;;14.60;4.05;;;;;;;4.93;86.99;102494.91;4971797;28;20375;-71
2023/03/28 09:09:26;;;;;;;11.57;3.65;;;;;;;4.97;84.92;102490.09;4957524;28;20034;-73
2023/03/28 09:12:01;;;;;;;13.98;3.72;;;;;;;5.04;85.06;102496.56;4974708;28;20037;-74
2023/03/28 09:14:33;;;;;;;16.40;4.35;;;;;;;5.04;80.29;102499.25;4957473;28;20030;-75
2023/03/28 09:16:58;;;;;;;12.90;4.18;;;;;;;5.01;81.13;102488.78;4973382;28;20033;-75
2023/03/28 09:19:37;;;;;;;8.45;3.40;;;;;;;5.08;82.38;102495.25;4971317;28;20047;-74
2023/03/28 09:22:27;;;;;;;8.45;2.85;;;;;;;5.06;76.15;102497.25;4968675;28;20482;-73
2023/03/28 09:25:05;;;;;;;8.20;2.67;;;;;;;5.03;75.05;102489.50;4969711;28;20033;-74
2023/03/28 09:27:36;;;;;;;10.27;2.60;;;;;;;5.05;75.63;102495.56;4957881;28;20031;-74
2023/03/28 09:30:19;;;;;;;9.32;2.58;;;;;;;5.10;79.34;102481.69;4975501;28;20439;-72
2023/03/28 09:32:45;;;;;;;9.13;2.90;;;;;;;5.17;76.57;102476.59;4974376;28;20035;-71
2023/03/28 09:35:20;;;;;;;9.32;2.80;;;;;;;5.19;73.92;102483.47;4972799;28;20552;-70
2023/03/28 09:38:00;;;;;;;9.63;2.78;;;;;;;5.16;73.95;102478.41;4958803;28;20064;-71
2023/03/28 09:40:30;;;;;;;12.50;2.50;;;;;;;5.19;73.55;102475.44;4962478;28;20035;-73
2023/03/28 09:43:04;;;;;;;7.35;2.30;;;;;;;5.24;74.83;102475.84;4955132;29;20019;-72
2023/03/28 09:45:49;;;;;;;5.57;1.85;;;;;;;5.36;74.04;102483.69;4953583;29;20027;-72
2023/03/28 09:48:20;;;;;;;11.80;2.13;;;;;;;5.38;70.67;102477.19;4954631;28;20027;-72
2023/03/28 09:50:46;;;;;;;7.95;2.33;;;;;;;5.40;70.95;102469.81;4962054;28;20034;-73
2023/03/28 09:53:36;;;;;;;9.45;2.58;;;;;;;5.44;72.32;102468.50;4966355;28;20031;-73
2023/03/28 09:56:28;;;;;;;6.20;2.20;;;;;;;5.51;74.04;102460.72;4963904;28;20034;-70
2023/03/28 09:59:01;;;;;;;12.23;3.70;;;;;;;5.53;69.56;102457.88;4956427;28;20121;-71
2023/03/28 10:01:48;;;;;;;8.40;2.60;;;;;;;5.58;70.81;102452.88;4969146;28;20026;-74
2023/03/28 10:04:25;;;;;;;10.13;2.92;;;;;;;5.57;70.01;102444.00;4937549;29;20027;-75
2023/03/28 10:06:51;;;;;;;11.07;2.72;;;;;;;5.65;71.00;102437.84;4955036;29;20078;-70
2023/03/28 10:09:21;;;;;;;11.38;2.50;;;;;;;5.71;70.77;102434.56;4954476;29;20031;-72
2023/03/28 10:11:53;;;;;;;9.98;2.33;;;;;;;5.77;68.01;102420.50;4960918;28;20031;-73
2023/03/28 10:14:39;;;;;;;8.63;2.47;;;;;;;5.88;69.29;102424.78;4966488;28;20443;-73
2023/03/28 10:17:26;;;;;;;9.48;2.25;;;;;;;5.95;67.87;102419.63;4937050;29;20553;-71
2023/03/28 10:19:57;;;;;;;8.77;2.53;;;;;;;5.95;66.36;102420.50;4954360;29;20054;-72
2023/03/28 10:22:38;;;;;;;8.50;2.42;;;;;;;6.00;65.98;102426.25;4952967;28;20082;-74
2023/03/28 10:25:06;;;;;;;8.03;2.67;;;;;;;6.01;63.78;102414.53;4954519;29;20470;-73
2023/03/28 10:27:36;;;;;;;7.65;2.53;;;;;;;6.06;63.64;102419.41;4954034;28;20381;-71
2023/03/28 10:30:21;;;;;;;10.10;2.38;;;;;;;6.10;62.16;102409.19;4953816;28;20367;-71
2023/03/28 10:33:09;;;;;;;7.22;2.42;;;;;;;6.16;63.89;102400.50;4964637;28;20541;-72
2023/03/28 10:35:35;;;;;;;7.97;2.10;;;;;;;6.20;60.32;102402.75;4973907;28;20134;-69
2023/03/28 10:38:03;;;;;;;7.25;2.20;;;;;;;6.25;58.05;102401.41;4956327;28;20496;-72
2023/03/28 10:40:30;;;;;;;7.03;2.22;;;;;;;6.28;58.86;102387.63;4971960;28;20047;-71
2023/03/28 10:42:57;;;;;;;6.63;1.92;;;;;;;6.26;58.21;102384.28;4972254;28;20038;-70
2023/03/28 10:45:32;;;;;;;16.27;2.60;;;;;;;6.34;59.24;102387.00;4971578;28;20054;-72
2023/03/28 10:48:01;;;;;;;4.82;2.10;;;;;;;6.41;60.91;102376.47;4941053;29;20023;-72
2023/03/28 10:50:29;;;;;;;6.70;1.88;;;;;;;6.45;57.85;102392.13;4941017;29;20066;-71
2023/03/28 10:53:04;;;;;;;7.05;2.00;;;;;;;6.50;59.33;102395.16;4959855;28;20619;-70
2023/03/28 10:55:39;;;;;;;10.98;2.67;;;;;;;6.53;58.12;102384.09;4971748;28;20125;-70
2023/03/28 10:58:38;;;;;;;8.05;2.13;;;;;;;6.57;58.42;102390.00;4960055;28;20023;-74
2023/03/28 11:01:11;;;;;;;7.45;2.28;;;;;;;6.61;58.76;102391.34;4974690;28;20431;-70
2023/03/28 11:04:15;;;;;;;12.95;2.50;;;;;;;6.70;58.97;102374.28;4975523;28;20459;-72
2023/03/28 11:06:52;;;;;;;7.63;2.35;;;;;;;6.79;58.24;102363.53;4961003;28;20518;-73
2023/03/28 11:09:41;;;;;;;7.10;2.08;;;;;;;6.90;56.95;102355.16;4957868;29;20030;-71
2023/03/28 11:12:19;;;;;;;5.90;2.65;;;;;;;6.96;57.03;102349.13;4962497;28;20026;-73
2023/03/28 11:15:07;;;;;;;10.50;3.15;;;;;;;6.99;58.13;102347.94;4959454;28;20447;-71
2023/03/28 11:17:59;;;;;;;10.65;3.08;;;;;;;7.09;57.83;102340.56;4976579;28;20031;-70
2023/03/28 11:20:43;;;;;;;8.02;2.35;;;;;;;7.15;57.74;102331.81;4951997;29;20034;-70
2023/03/28 11:23:17;;;;;;;6.57;2.53;;;;;;;7.19;54.93;102333.19;4970097;28;20054;-71
2023/03/28 11:25:48;;;;;;;6.45;2.70;;;;;;;7.30;55.83;102332.00;4976442;28;20085;-72
2023/03/28 11:28:43;;;;;;;8.43;3.60;;;;;;;7.42;57.93;102313.69;4976828;28;20043;-69
2023/03/28 11:31:14;;;;;;;8.85;3.13;;;;;;;7.51;56.02;102315.34;4959459;28;20027;-71
2023/03/28 11:34:03;;;;;;;9.00;2.63;;;;;;;7.62;54.62;102317.72;4958026;28;20026;-70
2023/03/28 11:36:40;;;;;;;7.40;2.55;;;;;;;7.60;53.04;102306.25;4958047;28;20426;-72
2023/03/28 11:39:18;;;;;;;10.40;2.72;;;;;;;7.68;54.22;102304.56;4976594;28;20058;-72